createdAt,value
2022-09-05T00:02:25.280Z,19.30
2022-09-05T00:06:01.742Z,19.30
2022-09-05T00:09:00.550Z,19.40
2022-09-05T00:11:51.859Z,19.30
2022-09-05T00:15:17.796Z,19.40
2022-09-05T00:24:30.625Z,19.30
2022-09-05T00:28:26.810Z,19.40
2022-09-05T00:31:54.402Z,19.40
2022-09-05T00:34:47.547Z,19.30
2022-09-05T00:37:37.869Z,19.20
2022-09-05T00:43:29.974Z,19.20
2022-09-05T00:49:19.642Z,19.10
2022-09-05T00:52:16.921Z,19.10
2022-09-05T00:55:36.731Z,19.20
2022-09-05T00:58:45.939Z,19.10
2022-09-05T01:01:45.536Z,19.10
2022-09-05T01:04:47.268Z,19.00
2022-09-05T01:07:57.474Z,19.00
2022-09-05T01:11:08.202Z,19.00
2022-09-05T01:14:31.238Z,19.10
2022-09-05T01:17:45.453Z,19.00
2022-09-05T01:20:42.131Z,19.00
2022-09-05T01:23:45.777Z,19.00
2022-09-05T01:26:59.433Z,19.00
2022-09-05T01:29:59.213Z,19.00
2022-09-05T01:32:50.841Z,18.90
2022-09-05T01:36:01.972Z,18.80
2022-09-05T01:42:30.161Z,18.90
2022-09-05T01:51:29.381Z,18.80
2022-09-05T01:54:39.771Z,18.90
2022-09-05T01:57:38.947Z,18.80
2022-09-05T02:00:47.151Z,18.80
2022-09-05T02:03:44.375Z,18.80
2022-09-05T02:06:39.804Z,18.80
2022-09-05T02:09:52.773Z,18.70
2022-09-05T02:13:03.088Z,18.70
2022-09-05T02:16:26.498Z,18.70
2022-09-05T02:25:00.280Z,18.60
2022-09-05T02:28:11.144Z,18.50
2022-09-05T02:31:20.587Z,18.50
2022-09-05T02:34:22.004Z,18.40
2022-09-05T02:37:16.107Z,18.40
2022-09-05T02:45:08.639Z,18.40
2022-09-05T02:45:18.726Z,18.30
2022-09-05T02:47:06.321Z,18.30
2022-09-05T02:53:57.810Z,18.20
2022-09-05T02:57:36.694Z,18.10
2022-09-05T02:57:45.848Z,18.10
2022-09-05T03:00:13.293Z,18.20
2022-09-05T03:03:24.038Z,18.10
2022-09-05T03:06:51.458Z,18.10
2022-09-05T03:12:45.458Z,17.90
2022-09-05T03:15:50.927Z,17.80
2022-09-05T03:19:23.207Z,17.80
2022-09-05T03:22:47.493Z,17.80
2022-09-05T03:26:00.548Z,17.70
2022-09-05T03:29:10.941Z,17.60
2022-09-05T03:32:12.952Z,17.60
2022-09-05T03:35:31.214Z,17.50
2022-09-05T03:38:37.956Z,17.40
2022-09-05T03:44:48.494Z,17.40
2022-09-05T03:48:23.115Z,17.40
2022-09-05T03:57:55.855Z,17.40
2022-09-05T04:02:56.553Z,17.30
2022-09-05T04:08:28.209Z,17.40
2022-09-05T04:08:30.845Z,17.30
2022-09-05T04:11:39.875Z,17.30
2022-09-05T04:14:38.702Z,17.40
2022-09-05T04:18:03.752Z,17.50
2022-09-05T04:21:00.824Z,17.50
2022-09-05T04:24:06.076Z,17.50
2022-09-05T04:27:20.193Z,17.40
2022-09-05T04:30:40.588Z,17.60
2022-09-05T04:33:36.853Z,17.50
2022-09-05T04:36:36.608Z,17.50
2022-09-05T04:42:24.002Z,17.50
2022-09-05T04:45:17.462Z,17.40
2022-09-05T04:48:15.006Z,17.50
2022-09-05T04:51:12.809Z,17.50
2022-09-05T04:54:31.106Z,17.50
2022-09-05T04:57:19.733Z,17.60
2022-09-05T05:05:01.054Z,17.50
2022-09-05T05:06:10.259Z,17.60
2022-09-05T05:06:45.626Z,17.60
2022-09-05T05:09:41.060Z,17.60
2022-09-05T05:17:59.705Z,17.70
2022-09-05T05:18:13.757Z,17.80
2022-09-05T05:19:34.090Z,17.80
2022-09-05T05:22:19.717Z,17.80
2022-09-05T05:25:12.030Z,17.90
2022-09-05T05:28:30.647Z,18.00
2022-09-05T05:31:25.948Z,18.10
2022-09-05T05:34:25.685Z,18.30
2022-09-05T05:37:24.938Z,18.50
2022-09-05T05:40:26.291Z,18.60
2022-09-05T05:43:17.002Z,18.60
2022-09-05T05:48:57.313Z,18.70
2022-09-05T05:52:02.667Z,18.90
2022-09-05T05:55:24.349Z,18.90
2022-09-05T05:58:33.939Z,19.10
2022-09-05T06:01:50.785Z,19.20
2022-09-05T06:05:13.657Z,19.20
2022-09-05T06:12:17.517Z,19.40
2022-09-05T06:15:02.948Z,19.40
2022-09-05T06:15:30.137Z,19.60
2022-09-05T06:18:53.185Z,19.60
2022-09-05T06:22:24.289Z,19.60
2022-09-05T06:25:18.797Z,19.70
2022-09-05T06:28:32.738Z,19.70
2022-09-05T06:31:30.764Z,19.70
2022-09-05T06:34:47.449Z,19.60
2022-09-05T06:37:38.355Z,19.70
2022-09-05T06:40:48.719Z,19.90
2022-09-05T06:44:08.940Z,20.00
2022-09-05T06:47:22.110Z,20.10
2022-09-05T06:50:24.551Z,18.00
2022-09-05T06:54:00.504Z,20.30
2022-09-05T06:57:03.591Z,20.40
2022-09-05T07:00:22.207Z,20.40
2022-09-05T07:03:28.824Z,20.50
2022-09-05T07:07:01.127Z,20.50
2022-09-05T07:10:37.407Z,20.60
2022-09-05T07:13:33.565Z,20.60
2022-09-05T07:16:41.908Z,20.60
2022-09-05T07:19:37.569Z,20.80
2022-09-05T07:22:47.560Z,20.80
2022-09-05T07:25:37.516Z,20.80
2022-09-05T07:28:29.898Z,21.00
2022-09-05T07:31:27.366Z,21.00
2022-09-05T07:34:31.791Z,21.00
2022-09-05T07:37:25.248Z,21.00
2022-09-05T07:40:25.343Z,21.00
2022-09-05T07:43:18.925Z,21.10
2022-09-05T07:46:37.421Z,21.10
2022-09-05T07:49:27.235Z,21.40
2022-09-05T07:56:49.105Z,21.60
2022-09-05T07:57:08.983Z,21.70
2022-09-05T07:58:49.670Z,21.90
2022-09-05T08:01:39.756Z,21.70
2022-09-05T08:04:32.194Z,21.50
2022-09-05T08:07:47.532Z,21.60
2022-09-05T08:11:25.744Z,21.60
2022-09-05T08:13:54.206Z,21.60
2022-09-05T08:16:58.120Z,21.70
2022-09-05T08:19:54.670Z,21.80
2022-09-05T08:23:06.675Z,22.00
2022-09-05T08:25:56.686Z,22.10
2022-09-05T08:28:55.481Z,22.20
2022-09-05T08:31:51.506Z,22.10
2022-09-05T08:34:45.379Z,22.40
2022-09-05T08:37:32.634Z,22.50
2022-09-05T08:40:39.175Z,22.60
2022-09-05T08:46:36.945Z,22.70
2022-09-05T08:46:51.627Z,22.80
2022-09-05T08:49:55.239Z,23.10
2022-09-05T08:52:51.532Z,23.30
2022-09-05T08:55:50.321Z,23.40
2022-09-05T08:59:27.220Z,23.50
2022-09-05T09:02:46.643Z,23.40
2022-09-05T09:05:20.637Z,23.40
2022-09-05T09:08:48.930Z,23.40
2022-09-05T09:11:51.435Z,23.50
2022-09-05T09:14:38.868Z,23.60
2022-09-05T09:17:26.973Z,23.60
2022-09-05T09:20:21.466Z,23.60
2022-09-05T09:23:32.680Z,23.60
2022-09-05T09:26:29.143Z,23.70
2022-09-05T09:29:18.099Z,23.60
2022-09-05T09:32:23.161Z,23.60
2022-09-05T09:35:23.725Z,23.60
2022-09-05T09:38:40.070Z,23.70
2022-09-05T09:41:49.443Z,23.70
2022-09-05T09:45:22.467Z,23.80
2022-09-05T09:48:23.965Z,23.80
2022-09-05T09:51:29.181Z,23.80
2022-09-05T09:54:32.964Z,23.80
2022-09-05T09:57:59.413Z,24.00
2022-09-05T10:01:35.231Z,24.20
2022-09-05T10:10:32.935Z,24.30
2022-09-05T10:10:45.886Z,24.30
2022-09-05T10:11:37.572Z,24.50
2022-09-05T10:14:50.786Z,24.60
2022-09-05T10:17:55.710Z,24.10
2022-09-05T10:21:16.649Z,24.80
2022-09-05T10:24:46.615Z,24.70
2022-09-05T10:28:04.812Z,24.90
2022-09-05T10:32:13.686Z,25.00
2022-09-05T10:35:09.739Z,25.20
2022-09-05T10:37:41.450Z,25.40
2022-09-05T10:40:28.899Z,25.20
2022-09-05T10:43:31.544Z,25.30
2022-09-05T10:46:51.267Z,25.50
2022-09-05T10:49:45.148Z,25.70
2022-09-05T10:52:40.026Z,25.70
2022-09-05T10:55:36.126Z,25.80
2022-09-05T11:01:10.323Z,25.80
2022-09-05T11:02:22.429Z,25.70
2022-09-05T11:05:01.922Z,25.80
2022-09-05T11:08:09.479Z,26.00
2022-09-05T11:11:26.049Z,26.20
2022-09-05T11:14:34.775Z,26.20
2022-09-05T11:17:30.615Z,26.20
2022-09-05T11:20:45.571Z,26.20
2022-09-05T11:23:37.002Z,26.20
2022-09-05T11:26:36.372Z,26.30
2022-09-05T11:29:34.396Z,26.40
2022-09-05T11:39:55.340Z,26.40
2022-09-05T11:39:57.302Z,26.40
2022-09-05T11:39:58.952Z,26.50
2022-09-05T11:42:47.468Z,26.60
2022-09-05T11:46:08.657Z,26.70
2022-09-05T11:49:25.285Z,26.80
2022-09-05T11:52:51.428Z,26.90
2022-09-05T11:56:08.098Z,24.80
2022-09-05T11:59:33.651Z,27.20
2022-09-05T12:02:43.770Z,27.10
2022-09-05T12:05:58.659Z,27.30
2022-09-05T12:08:55.864Z,27.20
2022-09-05T12:12:06.346Z,27.30
2022-09-05T12:15:25.356Z,27.20
2022-09-05T12:18:24.285Z,27.40
2022-09-05T12:21:31.655Z,27.60
2022-09-05T12:25:26.529Z,27.60
2022-09-05T12:29:26.479Z,27.70
2022-09-05T12:32:34.376Z,27.80
2022-09-05T12:36:04.241Z,28.00
2022-09-05T12:40:57.720Z,28.20
2022-09-05T12:41:43.194Z,27.80
2022-09-05T12:45:20.252Z,27.90
2022-09-05T12:48:23.941Z,28.20
2022-09-05T12:51:45.093Z,28.10
2022-09-05T12:54:34.760Z,27.30
2022-09-05T13:00:13.902Z,27.90
2022-09-05T13:03:01.346Z,27.60
2022-09-05T13:04:17.989Z,27.80
2022-09-05T13:07:18.236Z,26.00
2022-09-05T13:12:07.456Z,27.70
2022-09-05T13:15:07.564Z,27.60
2022-09-05T13:16:49.265Z,27.50
2022-09-05T13:19:45.708Z,27.30
2022-09-05T13:22:31.789Z,27.00
2022-09-05T13:25:27.419Z,27.00
2022-09-05T13:28:14.928Z,27.20
2022-09-05T13:37:58.552Z,27.60
2022-09-05T13:38:01.011Z,26.90
2022-09-05T13:38:13.927Z,28.20
2022-09-05T13:40:48.268Z,28.40
2022-09-05T13:43:38.123Z,28.20
2022-09-05T13:46:57.379Z,28.20
2022-09-05T13:49:53.495Z,28.10
2022-09-05T13:52:46.245Z,28.10
2022-09-05T13:55:42.983Z,28.20
2022-09-05T13:58:56.834Z,28.30
2022-09-05T14:02:25.028Z,28.70
2022-09-05T14:05:24.803Z,29.00
2022-09-05T14:08:19.464Z,28.70
2022-09-05T14:11:46.159Z,28.70
2022-09-05T14:18:22.590Z,28.80
2022-09-05T14:21:15.730Z,28.50
2022-09-05T14:24:09.777Z,28.60
2022-09-05T14:27:02.919Z,28.60
2022-09-05T14:29:56.336Z,28.30
2022-09-05T14:37:36.975Z,28.00
2022-09-05T14:37:42.859Z,27.60
2022-09-05T14:40:38.842Z,27.60
2022-09-05T14:43:52.524Z,27.60
2022-09-05T14:47:02.156Z,27.70
2022-09-05T14:49:59.108Z,28.90
2022-09-05T14:57:23.031Z,28.80
2022-09-05T15:02:43.970Z,28.60
2022-09-05T15:03:02.382Z,28.40
2022-09-05T15:05:50.608Z,28.30
2022-09-05T15:11:25.377Z,28.10
2022-09-05T15:12:27.839Z,28.10
2022-09-05T15:15:00.411Z,28.00
2022-09-05T15:17:51.574Z,28.20
2022-09-05T15:20:43.151Z,28.00
2022-09-05T15:23:32.018Z,28.10
2022-09-05T15:26:25.638Z,28.00
2022-09-05T15:29:14.670Z,28.30
2022-09-05T15:32:23.119Z,28.40
2022-09-05T15:35:37.001Z,28.30
2022-09-05T15:38:29.099Z,29.00
2022-09-05T15:41:18.094Z,28.20
2022-09-05T15:44:09.807Z,28.20
2022-09-05T15:47:00.234Z,28.00
2022-09-05T15:49:48.830Z,28.00
2022-09-05T15:52:41.846Z,28.00
2022-09-05T15:55:27.593Z,27.90
2022-09-05T15:58:13.191Z,27.90
2022-09-05T16:01:12.540Z,28.00
2022-09-05T16:05:11.780Z,27.90
2022-09-05T16:10:50.407Z,28.00
2022-09-05T16:10:58.275Z,27.80
2022-09-05T16:13:53.232Z,27.70
2022-09-05T16:23:14.854Z,27.60
2022-09-05T16:23:29.136Z,27.40
2022-09-05T16:23:39.499Z,27.20
2022-09-05T16:26:28.298Z,27.20
2022-09-05T16:29:26.231Z,27.30
2022-09-05T16:32:22.352Z,27.10
2022-09-05T16:35:11.578Z,27.00
2022-09-05T16:38:24.219Z,26.90
2022-09-05T16:41:47.220Z,26.80
2022-09-05T16:44:41.070Z,26.80
2022-09-05T16:47:36.566Z,26.80
2022-09-05T16:50:39.023Z,26.70
2022-09-05T16:53:38.818Z,26.70
2022-09-05T16:56:52.408Z,26.50
2022-09-05T16:59:43.238Z,26.60
2022-09-05T17:02:32.490Z,26.50
2022-09-05T17:05:36.317Z,26.40
2022-09-05T17:08:25.970Z,26.20
2022-09-05T17:11:30.080Z,26.10
2022-09-05T17:14:21.156Z,26.10
2022-09-05T17:18:18.393Z,26.00
2022-09-05T17:20:29.383Z,25.90
2022-09-05T17:29:18.643Z,25.80
2022-09-05T17:29:35.290Z,25.80
2022-09-05T17:32:57.928Z,25.70
2022-09-05T17:36:01.969Z,25.60
2022-09-05T17:39:06.803Z,25.40
2022-09-05T17:42:13.429Z,25.40
2022-09-05T17:45:23.859Z,25.30
2022-09-05T17:48:16.626Z,25.20
2022-09-05T17:51:02.234Z,25.10
2022-09-05T17:54:16.176Z,25.00
2022-09-05T17:57:27.647Z,25.00
2022-09-05T18:00:58.909Z,24.80
2022-09-05T18:03:45.803Z,22.80
2022-09-05T18:06:37.886Z,24.70
2022-09-05T18:09:55.726Z,24.70
2022-09-05T18:13:31.268Z,24.70
2022-09-05T18:15:57.125Z,24.40
2022-09-05T18:19:33.396Z,24.60
2022-09-05T18:21:51.584Z,24.50
2022-09-05T18:24:42.532Z,24.40
2022-09-05T18:28:04.707Z,24.30
2022-09-05T18:30:50.776Z,24.30
2022-09-05T18:33:56.047Z,24.20
2022-09-05T18:36:48.774Z,24.10
2022-09-05T18:39:37.613Z,24.10
2022-09-05T18:42:26.179Z,24.00
2022-09-05T18:45:29.123Z,23.90
2022-09-05T18:48:29.605Z,21.40
2022-09-05T18:51:23.853Z,23.90
2022-09-05T18:54:20.362Z,23.90
2022-09-05T18:57:19.753Z,23.80
2022-09-05T19:00:46.604Z,23.80
2022-09-05T19:03:34.910Z,23.80
2022-09-05T19:06:36.413Z,23.70
2022-09-05T19:09:27.368Z,23.70
2022-09-05T19:12:31.799Z,23.70
2022-09-05T19:15:24.730Z,23.60
2022-09-05T19:18:26.052Z,23.50
2022-09-05T19:21:22.327Z,23.50
2022-09-05T19:24:20.144Z,23.40
2022-09-05T19:28:13.979Z,23.30
2022-09-05T19:36:44.396Z,23.20
2022-09-05T19:36:54.023Z,23.20
2022-09-05T19:37:29.751Z,23.20
2022-09-05T19:42:00.345Z,23.10
2022-09-05T19:47:37.189Z,23.10
2022-09-05T19:47:56.658Z,23.00
2022-09-05T19:49:27.000Z,23.00
2022-09-05T19:52:17.329Z,23.00
2022-09-05T19:55:03.026Z,22.90
2022-09-05T19:58:19.417Z,22.80
2022-09-05T20:01:05.637Z,22.80
2022-09-05T20:03:54.537Z,22.80
2022-09-05T20:06:40.061Z,22.60
2022-09-05T20:09:26.670Z,22.60
2022-09-05T20:12:23.968Z,22.60
2022-09-05T20:15:35.982Z,22.60
2022-09-05T20:18:28.413Z,22.30
2022-09-05T20:21:30.224Z,22.30
2022-09-05T20:24:17.259Z,22.30
2022-09-05T20:27:03.505Z,22.20
2022-09-05T20:29:56.374Z,22.30
2022-09-05T20:32:46.332Z,22.30
2022-09-05T20:43:08.174Z,22.20
2022-09-05T20:43:12.619Z,22.20
2022-09-05T20:43:20.493Z,22.20
2022-09-05T20:45:05.494Z,22.10
2022-09-05T20:54:07.174Z,22.10
2022-09-05T20:54:18.231Z,22.10
2022-09-05T20:54:32.234Z,22.20
2022-09-05T20:57:18.903Z,22.20
2022-09-05T21:00:16.982Z,22.10
2022-09-05T21:03:02.500Z,22.00
2022-09-05T21:05:47.699Z,22.10
2022-09-05T21:08:35.110Z,22.10
2022-09-05T21:11:33.281Z,22.10
2022-09-05T21:14:21.502Z,22.10
2022-09-05T21:17:15.599Z,22.10
2022-09-05T21:20:08.305Z,22.10
2022-09-05T21:25:52.553Z,22.10
2022-09-05T21:28:40.374Z,22.10
2022-09-05T21:31:27.778Z,22.10
2022-09-05T21:34:23.877Z,22.10
2022-09-05T21:37:12.010Z,22.00
2022-09-05T21:40:00.849Z,22.00
2022-09-05T21:47:32.887Z,22.00
2022-09-05T21:47:48.487Z,21.90
2022-09-05T21:48:57.168Z,21.80
2022-09-05T21:51:48.271Z,21.80
2022-09-05T21:59:24.362Z,21.70
2022-09-05T21:59:32.587Z,21.80
2022-09-05T22:00:54.258Z,21.70
2022-09-05T22:06:33.522Z,21.50
2022-09-05T22:09:21.230Z,21.60
2022-09-05T22:12:16.112Z,21.50
2022-09-05T22:15:27.434Z,21.60
2022-09-05T22:18:16.648Z,21.50
2022-09-05T22:21:32.789Z,21.50
2022-09-05T22:24:12.649Z,21.40
2022-09-05T22:27:11.702Z,21.40
2022-09-05T22:29:58.415Z,21.40
2022-09-05T22:32:43.923Z,21.30
2022-09-05T22:35:29.273Z,21.30
2022-09-05T22:38:19.373Z,21.30
2022-09-05T22:41:06.407Z,21.30
2022-09-05T22:43:51.846Z,21.30
2022-09-05T22:46:37.214Z,21.30
2022-09-05T22:49:22.481Z,21.30
2022-09-05T22:52:09.595Z,21.20
2022-09-05T22:54:54.850Z,21.20
2022-09-05T22:57:41.310Z,21.20
2022-09-05T23:00:26.574Z,21.20
2022-09-05T23:03:12.306Z,21.20
2022-09-05T23:06:05.140Z,21.10
2022-09-05T23:11:36.846Z,21.00
2022-09-05T23:14:22.105Z,21.10
2022-09-05T23:17:07.280Z,21.10
2022-09-05T23:19:52.755Z,21.10
2022-09-05T23:22:39.319Z,21.10
2022-09-05T23:25:25.038Z,21.10
2022-09-05T23:28:10.504Z,21.10
2022-09-05T23:31:02.141Z,21.10
2022-09-05T23:33:47.827Z,21.00
2022-09-05T23:36:33.200Z,21.00
2022-09-05T23:42:04.619Z,20.90
2022-09-05T23:47:36.711Z,20.90
2022-09-05T23:55:53.493Z,20.80
2022-09-05T23:58:38.977Z,20.80
